Time;durP1;ratioP1;P1;durP2;ratioP2;P2;SDS_P1;SDS_P2;PMS_P1;PMS_P2;Temp;Humidity;BMP_temperature;BMP_pressure;BME280_temperature;BME280_humidity;BME280_pressure;Samples;Min_cycle;Max_cycle;Signal;HPM_P1;HPM_P2
2023/09/17 00:00:04;;;;;;;;;;;;;;;29.32;42.24;94227.38;5002508;28;7016;-56
2023/09/17 00:02:55;;;;;;;;;;;;;;;29.31;42.33;94214.78;4991825;28;7017;-56
2023/09/17 00:05:26;;;;;;;;;;;;;;;29.29;42.77;94220.88;4974576;28;9253;-57
2023/09/17 00:07:53;;;;;;;;;;;;;;;29.29;42.65;94211.81;4990814;28;9302;-56
2023/09/17 00:10:24;;;;;;;;;;;;;;;29.30;41.76;94216.81;4990962;28;8232;-57
2023/09/17 00:12:55;;;;;;;;;;;;;;;29.30;42.61;94214.03;4986983;28;7249;-56
2023/09/17 00:15:22;;;;;;;;;;;;;;;29.29;42.46;94217.34;4973996;28;7286;-56
2023/09/17 00:18:05;;;;;;;;;;;;;;;29.28;42.47;94207.53;4966464;28;9180;-56
2023/09/17 00:20:42;;;;;;;;;;;;;;;29.31;42.76;94212.00;4974213;28;7175;-57
2023/09/17 00:23:27;;;;;;;;;;;;;;;29.31;42.66;94220.31;4972370;28;7242;-57
2023/09/17 00:25:55;;;;;;;;;;;;;;;29.29;42.22;94218.09;4974601;28;9431;-56
2023/09/17 00:28:22;;;;;;;;;;;;;;;29.31;41.93;94223.09;4970239;28;7254;-56
2023/09/17 00:31:09;;;;;;;;;;;;;;;29.29;42.08;94206.28;4971372;28;7846;-57
2023/09/17 00:33:37;;;;;;;;;;;;;;;29.30;42.14;94208.50;4974919;28;9139;-56
2023/09/17 00:36:05;;;;;;;;;;;;;;;29.30;42.34;94210.50;4971638;28;7172;-56
2023/09/17 00:38:31;;;;;;;;;;;;;;;29.28;42.92;94215.84;4976530;28;7207;-56
2023/09/17 00:40:59;;;;;;;;;;;;;;;29.26;42.63;94210.09;5013397;28;9485;-56
2023/09/17 00:43:48;;;;;;;;;;;;;;;29.27;42.46;94219.91;5000839;28;7246;-57
2023/09/17 00:46:24;;;;;;;;;;;;;;;29.25;41.65;94228.03;5009439;28;7214;-56
2023/09/17 00:48:51;;;;;;;;;;;;;;;29.26;42.29;94232.28;5025779;28;9013;-56
2023/09/17 00:51:34;;;;;;;;;;;;;;;29.27;42.45;94231.00;5003334;28;7623;-56
2023/09/17 00:54:02;;;;;;;;;;;;;;;29.27;41.88;94226.22;5005510;28;7510;-56
2023/09/17 00:56:28;;;;;;;;;;;;;;;29.27;42.07;94228.97;5011019;28;7229;-56
2023/09/17 00:58:58;;;;;;;;;;;;;;;29.26;42.62;94223.97;5008260;28;7566;-57
2023/09/17 01:01:24;;;;;;;;;;;;;;;29.25;42.18;94228.03;5009118;28;8813;-56
2023/09/17 01:03:53;;;;;;;;;;;;;;;29.24;42.03;94227.28;5006174;28;7269;-57
2023/09/17 01:06:21;;;;;;;;;;;;;;;29.25;42.67;94223.25;5009150;28;9119;-55
2023/09/17 01:08:48;;;;;;;;;;;;;;;29.26;42.50;94230.25;5009477;28;7061;-55
2023/09/17 01:11:25;;;;;;;;;;;;;;;29.26;41.64;94235.03;5004136;28;8227;-55
2023/09/17 01:14:08;;;;;;;;;;;;;;;29.24;42.30;94232.81;5012366;28;6868;-55
2023/09/17 01:16:35;;;;;;;;;;;;;;;29.25;42.08;94230.78;5005027;28;8702;-55
2023/09/17 01:19:05;;;;;;;;;;;;;;;29.24;42.46;94224.50;5028244;28;6991;-55
2023/09/17 01:21:40;;;;;;;;;;;;;;;29.24;41.78;94232.06;5012036;28;7328;-55
2023/09/17 01:24:16;;;;;;;;;;;;;;;29.24;41.67;94232.06;5014057;28;7330;-55
2023/09/17 01:26:47;;;;;;;;;;;;;;;29.22;42.21;94235.38;5011802;28;6970;-55
2023/09/17 01:29:23;;;;;;;;;;;;;;;29.22;42.36;94237.41;5012348;28;7035;-55
2023/09/17 01:32:00;;;;;;;;;;;;;;;29.23;42.40;94231.31;5014669;28;9228;-55
2023/09/17 01:34:28;;;;;;;;;;;;;;;29.23;42.52;94234.09;5016275;28;7430;-55
2023/09/17 01:37:31;;;;;;;;;;;;;;;29.23;42.08;94236.84;5011473;28;7406;-55
2023/09/17 01:40:12;;;;;;;;;;;;;;;29.21;42.14;94233.88;4962704;28;9576;-55
2023/09/17 01:42:58;;;;;;;;;;;;;;;29.22;42.49;94232.63;4967847;28;6957;-55
2023/09/17 01:45:27;;;;;;;;;;;;;;;29.20;42.46;94226.88;4991891;28;7362;-55
2023/09/17 01:48:18;;;;;;;;;;;;;;;29.20;42.47;94231.66;4989874;28;7270;-55
2023/09/17 01:51:03;;;;;;;;;;;;;;;29.19;42.74;94227.41;4991302;28;6982;-55
2023/09/17 01:53:32;;;;;;;;;;;;;;;29.21;42.48;94227.63;4993149;28;7093;-54
2023/09/17 01:56:13;;;;;;;;;;;;;;;29.18;42.03;94228.69;4976079;28;9104;-55
2023/09/17 01:58:48;;;;;;;;;;;;;;;29.19;41.90;94235.72;4989934;28;6978;-55
2023/09/17 02:01:14;;;;;;;;;;;;;;;29.21;42.35;94235.94;4977879;28;6988;-55
2023/09/17 02:03:40;;;;;;;;;;;;;;;29.19;41.79;94242.00;4988056;28;7025;-55
2023/09/17 02:06:26;;;;;;;;;;;;;;;29.18;41.81;94239.75;4983670;28;8027;-55
2023/09/17 02:09:05;;;;;;;;;;;;;;;29.17;42.50;94241.78;4960505;28;7235;-55
2023/09/17 02:12:03;;;;;;;;;;;;;;;29.16;42.49;94243.09;4990144;28;9126;-55
2023/09/17 02:14:32;;;;;;;;;;;;;;;29.17;42.85;94249.38;4951629;28;7000;-57
2023/09/17 02:16:59;;;;;;;;;;;;;;;29.15;42.09;94251.88;4965355;28;7297;-56
2023/09/17 02:19:28;;;;;;;;;;;;;;;29.16;41.77;94254.16;4974342;28;7194;-56
2023/09/17 02:22:20;;;;;;;;;;;;;;;29.15;41.71;94249.88;4973717;28;7405;-56
2023/09/17 02:24:46;;;;;;;;;;;;;;;29.15;41.84;94251.88;4972993;28;7238;-56
2023/09/17 02:27:19;;;;;;;;;;;;;;;29.14;41.83;94248.38;4972490;28;7407;-56
2023/09/17 02:29:45;;;;;;;;;;;;;;;29.15;42.07;94247.09;4953720;28;9098;-56
2023/09/17 02:32:13;;;;;;;;;;;;;;;29.16;42.17;94242.31;4971594;28;7248;-56
2023/09/17 02:34:41;;;;;;;;;;;;;;;29.15;41.63;94238.03;4956720;28;7260;-57
2023/09/17 02:37:09;;;;;;;;;;;;;;;29.14;42.28;94228.25;4973664;28;9104;-56
2023/09/17 02:39:53;;;;;;;;;;;;;;;29.12;42.21;94228.81;4974059;28;7965;-56
2023/09/17 02:42:23;;;;;;;;;;;;;;;29.13;42.22;94229.53;4964855;28;7061;-57
2023/09/17 02:44:53;;;;;;;;;;;;;;;29.15;41.80;94235.25;4972891;28;7228;-56
2023/09/17 02:47:20;;;;;;;;;;;;;;;29.13;42.03;94233.03;4970828;28;9430;-57
2023/09/17 02:49:46;;;;;;;;;;;;;;;29.09;42.12;94219.53;4954246;28;8865;-57
2023/09/17 02:52:14;;;;;;;;;;;;;;;29.12;42.87;94228.03;5006652;28;8753;-56
2023/09/17 02:54:43;;;;;;;;;;;;;;;29.10;41.57;94223.78;5011223;28;9053;-56
2023/09/17 02:57:09;;;;;;;;;;;;;;;29.12;41.59;94225.28;5006679;28;9225;-56
2023/09/17 02:59:35;;;;;;;;;;;;;;;29.11;41.92;94227.28;5022272;28;7451;-56
2023/09/17 03:02:01;;;;;;;;;;;;;;;29.09;42.16;94222.31;5004326;28;7713;-56
2023/09/17 03:04:28;;;;;;;;;;;;;;;29.09;42.80;94221.56;5025582;28;7161;-57
2023/09/17 03:06:58;;;;;;;;;;;;;;;29.12;42.25;94225.28;5011639;28;7195;-56
2023/09/17 03:09:27;;;;;;;;;;;;;;;29.09;42.39;94227.09;5027455;28;8338;-56
2023/09/17 03:11:53;;;;;;;;;;;;;;;29.12;41.98;94220.50;5007479;28;7358;-57
2023/09/17 03:14:21;;;;;;;;;;;;;;;29.10;42.58;94218.25;5021918;28;7187;-57
2023/09/17 03:16:48;;;;;;;;;;;;;;;29.11;42.14;94224.53;5013192;28;7219;-57
2023/09/17 03:19:31;;;;;;;;;;;;;;;29.11;41.87;94219.00;5004976;28;7314;-56
2023/09/17 03:21:59;;;;;;;;;;;;;;;29.09;41.58;94222.31;5012890;28;9092;-56
2023/09/17 03:24:27;;;;;;;;;;;;;;;29.06;42.61;94219.84;5010093;28;7429;-57
2023/09/17 03:26:53;;;;;;;;;;;;;;;29.06;42.46;94219.84;5008185;28;7245;-63
2023/09/17 03:29:41;;;;;;;;;;;;;;;29.09;41.60;94227.84;5002336;28;8761;-63
2023/09/17 03:32:17;;;;;;;;;;;;;;;29.08;41.94;94229.13;5028045;28;7573;-63
2023/09/17 03:35:23;;;;;;;;;;;;;;;29.05;42.17;94221.91;5011819;28;7240;-64
2023/09/17 03:38:26;;;;;;;;;;;;;;;29.05;41.67;94227.44;4972792;28;9068;-63
2023/09/17 03:40:55;;;;;;;;;;;;;;;29.08;42.10;94223.56;4990734;28;7221;-63
2023/09/17 03:43:40;;;;;;;;;;;;;;;29.07;41.79;94226.88;4980083;28;7223;-63
2023/09/17 03:47:01;;;;;;;;;;;;;;;29.05;42.21;94221.16;4988123;28;7263;-63
2023/09/17 03:49:44;;;;;;;;;;;;;;;29.06;42.22;94222.63;4940011;28;7080;-63
2023/09/17 03:52:12;;;;;;;;;;;;;;;29.06;42.19;94230.94;4940938;28;7126;-63
2023/09/17 03:54:44;;;;;;;;;;;;;;;29.05;42.08;94227.44;4925643;28;7650;-64
2023/09/17 03:57:13;;;;;;;;;;;;;;;29.05;41.68;94232.22;4922682;29;7188;-63
2023/09/17 03:59:41;;;;;;;;;;;;;;;29.04;42.31;94237.00;4931220;29;7299;-63
2023/09/17 04:02:09;;;;;;;;;;;;;;;29.03;42.10;94234.78;4932237;28;7220;-63
2023/09/17 04:04:44;;;;;;;;;;;;;;;29.01;42.46;94237.34;4931793;28;7070;-64
2023/09/17 04:07:11;;;;;;;;;;;;;;;28.99;42.07;94237.16;4932771;28;7149;-63
2023/09/17 04:09:42;;;;;;;;;;;;;;;28.97;42.45;94243.22;4928786;29;7121;-63
2023/09/17 04:12:09;;;;;;;;;;;;;;;28.95;41.72;94239.47;4928673;29;7234;-63
2023/09/17 04:14:40;;;;;;;;;;;;;;;28.92;42.41;94241.31;4931075;29;6985;-63
2023/09/17 04:17:20;;;;;;;;;;;;;;;28.91;42.22;94233.53;4932973;29;10013;-63
2023/09/17 04:19:56;;;;;;;;;;;;;;;28.89;41.83;94234.06;4933675;29;7217;-63
2023/09/17 04:22:22;;;;;;;;;;;;;;;28.87;41.81;94233.88;4921054;28;7269;-63
2023/09/17 04:24:50;;;;;;;;;;;;;;;28.88;42.46;94245.69;5008521;28;7233;-63
2023/09/17 04:27:20;;;;;;;;;;;;;;;28.88;41.68;94245.69;5012454;28;7525;-63
2023/09/17 04:30:03;;;;;;;;;;;;;;;28.89;42.58;94242.38;5011172;28;9155;-64
2023/09/17 04:32:41;;;;;;;;;;;;;;;28.88;42.64;94238.13;5004737;28;6996;-63
2023/09/17 04:35:21;;;;;;;;;;;;;;;28.88;42.46;94242.94;5012109;28;9364;-63
2023/09/17 04:37:59;;;;;;;;;;;;;;;28.84;42.36;94229.41;5006701;28;9434;-63
2023/09/17 04:40:28;;;;;;;;;;;;;;;28.86;41.73;94237.91;5008498;28;9237;-62
2023/09/17 04:43:21;;;;;;;;;;;;;;;28.86;41.46;94237.91;5004226;28;7211;-62
2023/09/17 04:46:12;;;;;;;;;;;;;;;28.86;42.57;94232.38;5016565;28;7173;-62
2023/09/17 04:48:40;;;;;;;;;;;;;;;28.85;41.51;94235.69;5006452;28;9343;-62
2023/09/17 04:51:06;;;;;;;;;;;;;;;28.84;41.63;94234.94;5010120;28;7162;-62
2023/09/17 04:53:34;;;;;;;;;;;;;;;28.82;42.13;94231.97;5020968;28;7226;-62
2023/09/17 04:56:03;;;;;;;;;;;;;;;28.83;41.55;94239.00;5013477;28;7239;-62
2023/09/17 04:58:29;;;;;;;;;;;;;;;28.83;42.60;94243.78;5014258;28;7437;-62
2023/09/17 05:00:55;;;;;;;;;;;;;;;28.83;42.17;94247.31;5011547;28;7348;-62
2023/09/17 05:03:21;;;;;;;;;;;;;;;28.80;42.45;94251.13;5030412;28;7282;-62
2023/09/17 05:05:49;;;;;;;;;;;;;;;28.83;42.83;94252.09;5011940;28;9064;-62
2023/09/17 05:08:24;;;;;;;;;;;;;;;28.80;42.07;94253.91;5022132;28;7282;-63
2023/09/17 05:10:50;;;;;;;;;;;;;;;28.82;42.34;94251.34;5000969;28;7076;-62
2023/09/17 05:13:35;;;;;;;;;;;;;;;28.82;42.33;94248.56;5027881;28;9046;-63
2023/09/17 05:16:12;;;;;;;;;;;;;;;28.80;42.50;94244.84;5030103;28;7076;-62
2023/09/17 05:18:38;;;;;;;;;;;;;;;28.81;42.52;94254.66;5013509;28;9067;-62
2023/09/17 05:21:07;;;;;;;;;;;;;;;28.81;42.37;94254.66;5010302;28;7072;-62
2023/09/17 05:23:36;;;;;;;;;;;;;;;28.82;41.65;94258.88;5028981;28;7981;-62
2023/09/17 05:26:02;;;;;;;;;;;;;;;28.82;41.75;94256.88;5012025;28;7426;-62
2023/09/17 05:28:44;;;;;;;;;;;;;;;28.82;41.67;94261.66;5014052;28;7259;-62
2023/09/17 05:31:17;;;;;;;;;;;;;;;28.81;41.83;94260.19;5005564;28;7343;-63
2023/09/17 05:33:48;;;;;;;;;;;;;;;28.81;41.89;94262.94;5013367;28;8826;-62
2023/09/17 05:36:42;;;;;;;;;;;;;;;28.80;41.95;94262.19;5014747;28;8767;-63
2023/09/17 05:39:20;;;;;;;;;;;;;;;28.80;41.80;94256.66;4981637;28;7556;-62
2023/09/17 05:42:02;;;;;;;;;;;;;;;28.80;41.59;94250.38;4990445;28;9881;-62
2023/09/17 05:44:31;;;;;;;;;;;;;;;28.78;41.82;94256.47;4973775;28;7231;-64
2023/09/17 05:47:18;;;;;;;;;;;;;;;28.79;42.04;94257.22;4976675;28;7197;-63
2023/09/17 05:49:46;;;;;;;;;;;;;;;28.78;41.58;94258.47;4969795;28;7003;-63
2023/09/17 05:52:16;;;;;;;;;;;;;;;28.76;42.10;94245.19;4983073;28;7275;-63
2023/09/17 05:55:00;;;;;;;;;;;;;;;28.79;42.46;94246.88;4976895;28;9078;-63
2023/09/17 05:57:37;;;;;;;;;;;;;;;28.80;41.72;94242.81;4991887;28;8961;-64
2023/09/17 06:00:04;;;;;;;;;;;;;;;28.79;42.38;94244.13;4974988;28;7312;-63
2023/09/17 06:02:37;;;;;;;;;;;;;;;28.78;42.05;94237.09;4993104;28;7232;-63
2023/09/17 06:05:16;;;;;;;;;;;;;;;28.78;41.92;94239.84;4983511;28;7553;-62
2023/09/17 06:07:55;;;;;;;;;;;;;;;28.82;41.44;94233.97;4973258;28;9111;-62
2023/09/17 06:10:39;;;;;;;;;;;;;;;28.82;42.16;94237.50;4989826;28;8751;-63
2023/09/17 06:13:34;;;;;;;;;;;;;;;28.85;41.61;94241.97;4987102;28;9258;-63
2023/09/17 06:16:15;;;;;;;;;;;;;;;28.84;41.60;94239.75;4985589;28;7026;-63
2023/09/17 06:18:46;;;;;;;;;;;;;;;28.89;42.31;94241.63;5011173;28;8733;-63
2023/09/17 06:21:23;;;;;;;;;;;;;;;28.88;41.59;94243.66;5007707;28;7155;-63
2023/09/17 06:24:02;;;;;;;;;;;;;;;28.91;42.29;94244.59;5009489;28;9150;-63
2023/09/17 06:26:39;;;;;;;;;;;;;;;28.91;42.05;94248.13;5009014;28;7183;-63
2023/09/17 06:29:05;;;;;;;;;;;;;;;28.90;42.24;94243.88;5010087;28;7259;-63
2023/09/17 06:31:49;;;;;;;;;;;;;;;28.90;41.78;94238.34;5011423;28;8372;-63
2023/09/17 06:34:22;;;;;;;;;;;;;;;28.90;41.52;94241.13;5013479;28;7238;-63
2023/09/17 06:36:48;;;;;;;;;;;;;;;28.90;42.45;94243.13;5023888;28;8821;-63
2023/09/17 06:39:18;;;;;;;;;;;;;;;28.89;42.56;94245.16;5031289;28;9160;-63
2023/09/17 06:41:56;;;;;;;;;;;;;;;28.89;42.77;94234.06;5012603;28;7712;-63
2023/09/17 06:44:36;;;;;;;;;;;;;;;28.90;42.00;94232.81;5013113;28;7005;-63
2023/09/17 06:47:04;;;;;;;;;;;;;;;28.93;42.21;94240.03;5016165;28;7189;-64
2023/09/17 06:49:51;;;;;;;;;;;;;;;28.96;42.12;94240.97;5007866;28;7364;-64
2023/09/17 06:52:44;;;;;;;;;;;;;;;28.95;42.66;94243.00;5029821;28;7261;-63
2023/09/17 06:55:23;;;;;;;;;;;;;;;28.94;42.63;94238.00;5008148;28;7285;-56
2023/09/17 06:58:01;;;;;;;;;;;;;;;28.96;41.74;94238.97;5010271;28;7171;-57
2023/09/17 07:00:27;;;;;;;;;;;;;;;28.97;42.37;94245.97;5024501;28;7678;-56
2023/09/17 07:03:10;;;;;;;;;;;;;;;28.99;41.54;94243.41;5012216;28;6997;-57
2023/09/17 07:05:48;;;;;;;;;;;;;;;28.99;42.39;94246.19;5011575;28;7230;-57
2023/09/17 07:08:17;;;;;;;;;;;;;;;28.99;42.26;94248.94;5011860;28;9138;-56
2023/09/17 07:10:55;;;;;;;;;;;;;;;28.99;42.92;94251.72;5011581;28;9053;-57
2023/09/17 07:13:23;;;;;;;;;;;;;;;28.99;42.00;94257.25;5009709;28;7449;-57
2023/09/17 07:15:49;;;;;;;;;;;;;;;29.00;41.62;94252.47;5021659;28;6968;-57
2023/09/17 07:18:48;;;;;;;;;;;;;;;29.01;41.29;94257.47;5004253;28;9128;-57
2023/09/17 07:21:23;;;;;;;;;;;;;;;29.04;41.89;94258.41;4968840;28;7317;-57
2023/09/17 07:24:09;;;;;;;;;;;;;;;29.03;42.09;94252.16;4966563;28;7316;-57
2023/09/17 07:26:35;;;;;;;;;;;;;;;29.03;41.55;94254.94;4949136;28;7631;-57
2023/09/17 07:29:08;;;;;;;;;;;;;;;29.05;41.34;94249.59;4958682;28;9114;-57
2023/09/17 07:31:34;;;;;;;;;;;;;;;29.04;40.99;94247.34;4963880;28;7550;-57
2023/09/17 07:34:00;;;;;;;;;;;;;;;29.05;41.82;94254.38;4949618;28;7406;-57
2023/09/17 07:36:26;;;;;;;;;;;;;;;29.04;41.02;94252.88;4952388;28;6985;-57
2023/09/17 07:38:54;;;;;;;;;;;;;;;29.02;41.77;94249.91;4962784;28;9083;-57
2023/09/17 07:41:21;;;;;;;;;;;;;;;29.01;41.91;94242.88;4963987;28;7258;-57
2023/09/17 07:43:47;;;;;;;;;;;;;;;29.03;42.01;94241.06;4972542;28;7460;-57
2023/09/17 07:46:23;;;;;;;;;;;;;;;29.02;41.25;94250.66;4965376;28;7218;-57
2023/09/17 07:48:51;;;;;;;;;;;;;;;29.04;41.20;94255.66;4976498;28;6954;-57
2023/09/17 07:51:39;;;;;;;;;;;;;;;29.04;40.93;94242.56;4970042;28;7281;-57
2023/09/17 07:54:19;;;;;;;;;;;;;;;29.05;41.14;94259.91;4968600;28;9336;-57
2023/09/17 07:56:59;;;;;;;;;;;;;;;29.08;41.83;94264.38;4979099;28;7409;-57
2023/09/17 07:59:25;;;;;;;;;;;;;;;29.09;41.96;94261.06;5024635;28;8790;-57
2023/09/17 08:01:56;;;;;;;;;;;;;;;29.06;41.61;94253.84;5024507;28;9205;-57
2023/09/17 08:04:32;;;;;;;;;;;;;;;29.08;41.11;94256.81;5013493;28;7236;-62
2023/09/17 08:06:59;;;;;;;;;;;;;;;29.05;41.47;94252.38;5013199;28;7276;-57
2023/09/17 08:10:01;;;;;;;;;;;;;;;29.08;41.83;94254.03;5010937;28;9033;-57
2023/09/17 08:12:56;;;;;;;;;;;;;;;29.09;41.12;94255.53;4978838;28;9349;-57
2023/09/17 08:15:23;;;;;;;;;;;;;;;29.10;41.13;94251.47;4938089;28;7204;-57
2023/09/17 08:18:27;;;;;;;;;;;;;;;29.11;41.64;94257.75;4939304;28;7131;-57
2023/09/17 08:21:01;;;;;;;;;;;;;;;29.08;41.63;94262.34;4880649;29;6986;-57
2023/09/17 08:23:37;;;;;;;;;;;;;;;29.07;41.40;94258.09;4864374;29;9462;-57
2023/09/17 08:26:08;;;;;;;;;;;;;;;29.11;41.61;94257.75;4877721;29;7235;-57
2023/09/17 08:29:05;;;;;;;;;;;;;;;29.12;41.01;94258.50;4875734;29;7319;-57
2023/09/17 08:31:35;;;;;;;;;;;;;;;29.12;41.58;94247.44;4839984;29;7035;-57
2023/09/17 08:34:03;;;;;;;;;;;;;;;29.12;42.00;94241.91;4847575;29;7273;-57
2023/09/17 08:37:17;;;;;;;;;;;;;;;29.13;41.70;94244.13;4842734;29;7220;-57
2023/09/17 08:43:24;;;;;;;;;;;;;;;29.10;41.83;94240.41;4845952;29;7565;-57
2023/09/17 08:46:21;;;;;;;;;;;;;;;29.14;40.95;94248.38;4812362;29;8348;-57
2023/09/17 08:48:47;;;;;;;;;;;;;;;29.14;41.76;94244.88;4830066;29;7489;-57
2023/09/17 08:51:18;;;;;;;;;;;;;;;29.14;41.70;94244.88;4824922;29;7226;-57
2023/09/17 08:54:05;;;;;;;;;;;;;;;29.14;42.12;94250.41;4829233;29;9115;-57
2023/09/17 08:56:33;;;;;;;;;;;;;;;29.14;41.49;94247.63;4895365;29;7341;-57
2023/09/17 08:59:06;;;;;;;;;;;;;;;29.11;41.39;94249.44;4883248;29;9083;-57
2023/09/17 09:01:44;;;;;;;;;;;;;;;29.13;40.95;94252.44;4891634;29;8900;-57
2023/09/17 09:04:12;;;;;;;;;;;;;;;29.14;40.96;94250.41;4877570;29;9858;-57
2023/09/17 09:06:49;;;;;;;;;;;;;;;29.18;41.43;94254.38;4878714;29;8739;-57
2023/09/17 09:09:36;;;;;;;;;;;;;;;29.17;41.16;94243.84;4951674;28;7158;-57
2023/09/17 09:12:18;;;;;;;;;;;;;;;29.17;41.56;94238.28;4954118;28;7250;-58
2023/09/17 09:14:44;;;;;;;;;;;;;;;29.16;41.91;94234.78;4947365;28;8294;-55
2023/09/17 09:17:19;;;;;;;;;;;;;;;29.14;41.91;94233.78;4952211;28;8555;-55
2023/09/17 09:19:45;;;;;;;;;;;;;;;29.17;41.07;94232.75;4969030;28;9054;-55
2023/09/17 09:22:12;;;;;;;;;;;;;;;29.16;41.14;94232.00;5010431;28;7674;-55
2023/09/17 09:24:44;;;;;;;;;;;;;;;29.17;41.32;94233.47;5007355;28;7367;-55
2023/09/17 09:27:10;;;;;;;;;;;;;;;29.19;41.26;94227.41;5011843;28;6978;-55
2023/09/17 09:29:48;;;;;;;;;;;;;;;29.18;41.44;94234.97;5026822;28;8760;-54
2023/09/17 09:32:18;;;;;;;;;;;;;;;29.18;41.47;94239.75;5022451;28;9418;-55
2023/09/17 09:34:57;;;;;;;;;;;;;;;29.19;41.68;94235.72;5013766;28;7062;-55
2023/09/17 09:37:24;;;;;;;;;;;;;;;29.18;41.53;94237.75;5007189;28;7085;-55
2023/09/17 09:40:04;;;;;;;;;;;;;;;29.20;40.91;94223.34;5011760;28;8722;-55
2023/09/17 09:43:02;;;;;;;;;;;;;;;29.22;41.58;94226.31;5026932;28;7017;-55
2023/09/17 09:45:48;;;;;;;;;;;;;;;29.20;41.86;94226.13;5009925;28;9077;-55
2023/09/17 09:48:28;;;;;;;;;;;;;;;29.22;41.90;94224.31;5028535;28;7175;-55
2023/09/17 09:51:00;;;;;;;;;;;;;;;29.24;40.98;94221.75;5027270;28;7321;-55
2023/09/17 09:53:29;;;;;;;;;;;;;;;29.28;41.34;94221.38;5006280;28;7061;-55
2023/09/17 09:56:04;;;;;;;;;;;;;;;29.27;41.60;94219.91;5003672;28;7277;-55
2023/09/17 09:58:32;;;;;;;;;;;;;;;29.27;41.10;94217.91;5009136;28;7389;-55
2023/09/17 10:01:05;;;;;;;;;;;;;;;29.30;41.19;94219.56;5035275;28;6963;-55
2023/09/17 10:03:33;;;;;;;;;;;;;;;29.31;41.80;94221.06;5006050;28;9304;-55
2023/09/17 10:06:07;;;;;;;;;;;;;;;29.31;41.76;94225.88;5014083;28;7123;-55
2023/09/17 10:08:40;;;;;;;;;;;;;;;29.32;41.18;94222.53;5013489;28;9157;-55
2023/09/17 10:12:01;;;;;;;;;;;;;;;29.32;41.57;94211.47;5013059;28;7707;-55
2023/09/17 10:14:34;;;;;;;;;;;;;;;29.34;41.28;94213.72;5002593;28;6994;-55
2023/09/17 10:17:01;;;;;;;;;;;;;;;29.33;41.83;94220.53;5018368;28;8686;-55
2023/09/17 10:19:34;;;;;;;;;;;;;;;29.33;41.65;94209.44;5006605;28;7488;-55
2023/09/17 10:22:07;;;;;;;;;;;;;;;29.34;41.37;94208.16;5022997;28;7006;-55
2023/09/17 10:24:51;;;;;;;;;;;;;;;29.32;41.16;94205.19;5021580;28;9415;-60
2023/09/17 10:27:51;;;;;;;;;;;;;;;29.34;41.50;94217.19;5010576;28;6985;-60
2023/09/17 10:30:20;;;;;;;;;;;;;;;29.33;40.85;94201.13;4973048;28;6999;-60
2023/09/17 10:33:00;;;;;;;;;;;;;;;29.34;42.00;94208.16;4970953;28;7198;-60
2023/09/17 10:35:33;;;;;;;;;;;;;;;29.35;41.17;94206.88;4974127;28;7388;-60
2023/09/17 10:38:09;;;;;;;;;;;;;;;29.34;41.81;94205.41;4975706;28;7270;-60
2023/09/17 10:40:58;;;;;;;;;;;;;;;29.37;40.95;94201.53;4975110;28;7367;-60
2023/09/17 10:43:29;;;;;;;;;;;;;;;29.41;40.68;94201.94;4970496;28;7267;-60
2023/09/17 10:46:13;;;;;;;;;;;;;;;29.38;41.31;94203.03;4985584;28;7136;-60
2023/09/17 10:48:54;;;;;;;;;;;;;;;29.36;40.81;94189.69;4988026;28;7029;-60
2023/09/17 10:51:30;;;;;;;;;;;;;;;29.39;41.39;94185.84;4986154;28;7231;-60
2023/09/17 10:53:57;;;;;;;;;;;;;;;29.41;40.96;94179.75;4971033;28;9377;-60
2023/09/17 10:56:45;;;;;;;;;;;;;;;29.41;40.57;94179.75;4984356;28;7364;-60
2023/09/17 10:59:22;;;;;;;;;;;;;;;29.42;40.47;94178.50;4984011;28;7500;-60
2023/09/17 11:01:59;;;;;;;;;;;;;;;29.42;40.96;94186.81;4979405;28;9111;-60
2023/09/17 11:04:40;;;;;;;;;;;;;;;29.41;40.45;94183.28;4966421;28;7471;-60
2023/09/17 11:07:14;;;;;;;;;;;;;;;29.43;41.17;94174.44;5011905;28;9182;-60
2023/09/17 11:09:42;;;;;;;;;;;;;;;29.42;41.31;94172.97;5011127;28;8768;-60
2023/09/17 11:12:11;;;;;;;;;;;;;;;29.43;41.34;94179.97;5024673;28;8267;-60
2023/09/17 11:14:57;;;;;;;;;;;;;;;29.45;40.43;94171.88;5005985;28;9039;-60
2023/09/17 11:17:59;;;;;;;;;;;;;;;29.45;40.42;94166.34;5021266;28;8948;-60
2023/09/17 11:21:06;;;;;;;;;;;;;;;29.46;41.43;94167.81;5010235;28;9023;-60
2023/09/17 11:23:44;;;;;;;;;;;;;;;29.46;41.26;94167.81;5020678;28;8199;-60
2023/09/17 11:26:46;;;;;;;;;;;;;;;29.49;41.55;94166.75;5013366;28;8055;-60
2023/09/17 11:29:14;;;;;;;;;;;;;;;29.48;41.16;94157.69;4971020;28;7876;-60
2023/09/17 11:31:54;;;;;;;;;;;;;;;29.50;40.96;94173.75;4955887;28;9492;-60
2023/09/17 11:34:35;;;;;;;;;;;;;;;29.50;40.44;94163.41;4970452;28;7215;-61
2023/09/17 11:37:07;;;;;;;;;;;;;;;29.50;41.09;94159.91;4954890;28;7604;-57
2023/09/17 11:39:36;;;;;;;;;;;;;;;29.51;41.24;94162.16;4964930;28;9002;-57
2023/09/17 11:42:13;;;;;;;;;;;;;;;29.53;41.02;94164.38;4954869;28;7814;-57
2023/09/17 11:44:52;;;;;;;;;;;;;;;29.52;41.32;94162.88;4967525;28;9080;-57
2023/09/17 11:47:23;;;;;;;;;;;;;;;29.55;40.75;94161.78;4968110;28;7374;-57
2023/09/17 11:50:00;;;;;;;;;;;;;;;29.57;40.94;94162.75;4960205;28;9061;-56
2023/09/17 11:52:27;;;;;;;;;;;;;;;29.60;39.97;94150.56;4954231;28;7112;-57
2023/09/17 11:55:06;;;;;;;;;;;;;;;29.59;40.14;94160.16;4967830;28;7240;-57
2023/09/17 11:57:34;;;;;;;;;;;;;;;29.61;40.89;94156.84;4958665;28;9061;-57
2023/09/17 12:00:00;;;;;;;;;;;;;;;29.61;40.31;94156.84;4953656;28;7196;-57
2023/09/17 12:02:29;;;;;;;;;;;;;;;29.61;40.28;94167.94;4952797;28;9582;-56
2023/09/17 12:05:07;;;;;;;;;;;;;;;29.60;41.07;94163.69;4991483;28;6993;-57
2023/09/17 12:07:34;;;;;;;;;;;;;;;29.59;40.29;94153.88;5014441;28;7331;-57
2023/09/17 12:10:11;;;;;;;;;;;;;;;29.63;41.01;94146.69;5005472;28;9390;-56
2023/09/17 12:12:47;;;;;;;;;;;;;;;29.67;40.53;94147.09;5015209;28;7005;-56
2023/09/17 12:15:30;;;;;;;;;;;;;;;29.70;41.12;94134.19;5006669;28;6998;-56
2023/09/17 12:17:57;;;;;;;;;;;;;;;29.72;40.72;94131.59;5024212;28;7266;-56
2023/09/17 12:21:09;;;;;;;;;;;;;;;29.73;40.29;94135.88;5002166;28;7239;-57
2023/09/17 12:23:56;;;;;;;;;;;;;;;29.73;41.12;94128.28;5005219;28;7332;-56
2023/09/17 12:26:54;;;;;;;;;;;;;;;29.73;41.09;94133.09;4994465;28;7427;-56
2023/09/17 12:29:23;;;;;;;;;;;;;;;29.73;40.87;94133.81;5009698;28;9047;-57
2023/09/17 12:32:36;;;;;;;;;;;;;;;29.74;40.20;94129.81;5006339;28;7280;-56
2023/09/17 12:35:13;;;;;;;;;;;;;;;29.75;40.45;94127.78;4947694;29;9792;-57
2023/09/17 12:37:41;;;;;;;;;;;;;;;29.76;40.62;94120.94;4923665;29;9059;-57
2023/09/17 12:40:29;;;;;;;;;;;;;;;29.76;40.10;94126.47;4932260;29;7232;-57
2023/09/17 12:43:07;;;;;;;;;;;;;;;29.77;40.93;94127.97;4930862;29;6995;-57
2023/09/17 12:45:43;;;;;;;;;;;;;;;29.77;40.74;94120.41;4942988;29;6989;-61
2023/09/17 12:48:09;;;;;;;;;;;;;;;29.77;40.33;94119.66;4939567;28;7614;-60
2023/09/17 12:50:42;;;;;;;;;;;;;;;29.78;40.08;94121.13;4944946;29;7071;-60
2023/09/17 12:53:09;;;;;;;;;;;;;;;29.75;39.87;94111.16;4949588;29;8890;-60
2023/09/17 12:55:36;;;;;;;;;;;;;;;29.82;40.37;94115.97;4928291;29;9690;-60
2023/09/17 12:58:07;;;;;;;;;;;;;;;29.83;40.97;94113.94;4946617;28;8724;-60
2023/09/17 13:00:33;;;;;;;;;;;;;;;29.83;40.40;94111.94;4925853;29;8669;-60
2023/09/17 13:03:10;;;;;;;;;;;;;;;29.83;40.66;94113.94;4946155;29;7673;-60
2023/09/17 13:05:37;;;;;;;;;;;;;;;29.84;40.37;94107.84;4938975;29;7130;-60
2023/09/17 13:08:09;;;;;;;;;;;;;;;29.86;40.53;94096.25;4929256;29;7191;-60
2023/09/17 13:10:38;;;;;;;;;;;;;;;29.86;40.03;94094.22;4948034;29;7254;-60
2023/09/17 13:13:09;;;;;;;;;;;;;;;29.86;40.80;94096.25;5025897;28;6997;-60
2023/09/17 13:15:36;;;;;;;;;;;;;;;29.90;40.81;94102.16;5003644;28;7198;-60
2023/09/17 13:18:02;;;;;;;;;;;;;;;29.90;40.25;94100.16;5009364;28;8798;-60
2023/09/17 13:20:29;;;;;;;;;;;;;;;29.91;40.26;94093.28;5013245;28;7255;-60
2023/09/17 13:23:24;;;;;;;;;;;;;;;29.95;40.14;94090.91;5012618;28;6989;-60
2023/09/17 13:26:00;;;;;;;;;;;;;;;29.95;40.47;94093.69;5008761;28;7240;-60
2023/09/17 13:28:45;;;;;;;;;;;;;;;29.97;40.46;94093.88;5000350;28;9144;-60
2023/09/17 13:31:40;;;;;;;;;;;;;;;30.01;39.90;94090.78;5011529;28;7506;-60
2023/09/17 13:34:13;;;;;;;;;;;;;;;29.99;40.92;94071.16;4952416;28;7257;-60
2023/09/17 13:36:44;;;;;;;;;;;;;;;30.02;40.56;94076.34;4970420;28;7632;-60
2023/09/17 13:39:41;;;;;;;;;;;;;;;30.06;40.32;94081.56;4965961;28;7552;-60
2023/09/17 13:42:09;;;;;;;;;;;;;;;30.07;40.54;94089.31;4887001;29;7307;-60
2023/09/17 13:44:46;;;;;;;;;;;;;;;30.09;41.23;94078.41;4873005;29;7234;-60